createdAt,value
2023-02-16T00:01:35.165Z,29.92
2023-02-16T00:04:02.164Z,31.45
2023-02-16T00:06:29.521Z,29.83
2023-02-16T00:08:57.059Z,30.30
2023-02-16T00:11:53.188Z,31.08
2023-02-16T00:14:23.464Z,29.85
2023-02-16T00:16:50.636Z,29.33
2023-02-16T00:19:23.023Z,26.95
2023-02-16T00:21:50.959Z,29.08
2023-02-16T00:24:17.597Z,29.35
2023-02-16T00:26:45.806Z,31.55
2023-02-16T00:29:17.554Z,29.38
2023-02-16T00:31:44.144Z,29.35
2023-02-16T00:34:33.126Z,28.85
2023-02-16T00:37:02.950Z,26.40
2023-02-16T00:39:29.522Z,30.08
2023-02-16T00:41:58.571Z,29.92
2023-02-16T00:44:42.184Z,28.67
2023-02-16T00:47:22.067Z,26.95
2023-02-16T00:49:51.155Z,29.08
2023-02-16T00:52:30.233Z,27.77
2023-02-16T00:54:57.873Z,28.27
2023-02-16T00:57:25.232Z,30.67
2023-02-16T00:59:58.399Z,29.02
2023-02-16T01:02:24.932Z,27.70
2023-02-16T01:04:51.496Z,29.95
2023-02-16T01:07:37.435Z,28.95
2023-02-16T01:10:24.734Z,28.50
2023-02-16T01:12:51.253Z,27.90
2023-02-16T01:15:19.132Z,27.73
2023-02-16T01:17:45.637Z,27.20
2023-02-16T01:20:20.872Z,28.88
2023-02-16T01:22:47.641Z,29.33
2023-02-16T01:25:14.785Z,27.75
2023-02-16T01:27:42.060Z,29.88
2023-02-16T01:30:15.054Z,26.40
2023-02-16T01:32:43.455Z,28.02
2023-02-16T01:35:10.421Z,28.73
2023-02-16T01:37:36.955Z,26.08
2023-02-16T01:40:04.051Z,26.10
2023-02-16T01:42:49.720Z,28.45
2023-02-16T01:45:20.188Z,28.08
2023-02-16T01:47:53.366Z,28.35
2023-02-16T01:50:23.487Z,27.33
2023-02-16T01:52:55.882Z,24.53
2023-02-16T01:55:26.086Z,25.23
2023-02-16T01:57:57.817Z,26.35
2023-02-16T02:00:54.740Z,27.88
2023-02-16T02:03:43.772Z,27.17
2023-02-16T02:06:12.670Z,27.50
2023-02-16T02:09:08.798Z,27.83
2023-02-16T02:11:41.088Z,26.42
2023-02-16T02:14:25.279Z,27.08
2023-02-16T02:17:01.701Z,26.77
2023-02-16T02:19:32.645Z,28.92
2023-02-16T02:22:43.428Z,29.83
2023-02-16T02:25:45.167Z,26.63
2023-02-16T02:28:19.094Z,28.75
2023-02-16T02:30:51.111Z,28.73
2023-02-16T02:33:30.126Z,27.90
2023-02-16T02:36:16.268Z,27.40
2023-02-16T02:39:01.724Z,27.83
2023-02-16T02:42:05.641Z,26.73
2023-02-16T02:44:48.271Z,24.30
2023-02-16T02:47:14.871Z,26.55
2023-02-16T02:49:54.690Z,25.77
2023-02-16T02:52:22.344Z,24.83
2023-02-16T02:55:08.078Z,27.90
2023-02-16T02:58:00.236Z,24.42
2023-02-16T03:00:43.745Z,24.08
2023-02-16T03:03:19.356Z,24.65
2023-02-16T03:05:50.340Z,23.92
2023-02-16T03:11:11.570Z,22.60
2023-02-16T03:13:42.131Z,23.45
2023-02-16T03:16:13.868Z,24.05
2023-02-16T03:19:00.082Z,24.17
2023-02-16T03:21:46.362Z,23.52
2023-02-16T03:24:35.642Z,22.38
2023-02-16T03:27:21.572Z,23.48
2023-02-16T03:29:50.294Z,22.88
2023-02-16T03:32:17.182Z,22.38
2023-02-16T03:34:43.854Z,22.67
2023-02-16T03:37:10.656Z,24.15
2023-02-16T03:39:57.190Z,24.80
2023-02-16T03:42:24.369Z,21.95
2023-02-16T03:44:51.681Z,23.48
2023-02-16T03:47:18.285Z,22.75
2023-02-16T03:49:44.869Z,22.95
2023-02-16T03:52:12.338Z,23.83
2023-02-16T03:54:38.929Z,24.48
2023-02-16T03:57:05.449Z,22.65
2023-02-16T03:59:32.034Z,23.20
2023-02-16T04:01:59.385Z,24.90
2023-02-16T04:04:26.014Z,22.63
2023-02-16T04:06:52.491Z,25.35
2023-02-16T04:09:19.058Z,22.95
2023-02-16T04:12:04.109Z,24.17
2023-02-16T04:14:30.596Z,23.25
2023-02-16T04:16:57.114Z,23.55
2023-02-16T04:19:24.773Z,24.75
2023-02-16T04:21:53.044Z,23.75
2023-02-16T04:24:19.753Z,21.67
2023-02-16T04:26:46.228Z,23.20
2023-02-16T04:29:12.706Z,24.23
2023-02-16T04:31:39.382Z,24.60
2023-02-16T04:34:06.230Z,24.88
2023-02-16T04:36:34.313Z,22.42
2023-02-16T04:39:00.944Z,23.75
2023-02-16T04:41:27.508Z,22.83
2023-02-16T04:43:54.049Z,22.05
2023-02-16T04:46:20.617Z,24.02
2023-02-16T04:48:47.249Z,22.92
2023-02-16T04:51:13.730Z,22.85
2023-02-16T04:53:40.260Z,21.77
2023-02-16T04:56:10.755Z,22.70
2023-02-16T04:58:37.314Z,20.98
2023-02-16T05:01:04.249Z,21.10
2023-02-16T05:03:31.319Z,22.30
2023-02-16T05:05:57.828Z,23.60
2023-02-16T05:08:24.322Z,20.95
2023-02-16T05:11:10.790Z,22.85
2023-02-16T05:13:55.971Z,22.02
2023-02-16T05:16:23.227Z,22.67
2023-02-16T05:18:49.721Z,20.65
2023-02-16T05:21:31.349Z,23.75
2023-02-16T05:24:06.246Z,23.80
2023-02-16T05:26:33.790Z,23.92
2023-02-16T05:29:01.156Z,23.35
2023-02-16T05:31:28.552Z,24.77
2023-02-16T05:33:55.615Z,23.45
2023-02-16T05:36:22.717Z,24.60
2023-02-16T05:38:49.310Z,22.58
2023-02-16T05:41:23.516Z,23.27
2023-02-16T05:43:58.530Z,22.80
2023-02-16T05:46:26.504Z,23.10
2023-02-16T05:48:54.059Z,23.45
2023-02-16T05:51:21.342Z,23.67
2023-02-16T05:53:48.142Z,24.23
2023-02-16T05:56:14.709Z,23.67
2023-02-16T05:58:41.204Z,23.20
2023-02-16T06:01:07.790Z,23.63
2023-02-16T06:03:35.965Z,23.50
2023-02-16T06:06:04.002Z,24.58
2023-02-16T06:08:31.277Z,25.42
2023-02-16T06:10:58.039Z,23.50
2023-02-16T06:13:24.851Z,22.65
2023-02-16T06:15:53.292Z,22.92
2023-02-16T06:18:19.855Z,23.90
2023-02-16T06:20:46.407Z,24.17
2023-02-16T06:23:13.690Z,24.88
2023-02-16T06:25:50.119Z,23.48
2023-02-16T06:28:16.631Z,24.08
2023-02-16T06:30:43.157Z,23.85
2023-02-16T06:33:09.759Z,23.83
2023-02-16T06:35:36.658Z,23.05
2023-02-16T06:38:03.283Z,22.02
2023-02-16T06:40:29.830Z,25.38
2023-02-16T06:42:56.346Z,23.45
2023-02-16T06:45:22.928Z,23.80
2023-02-16T06:47:49.947Z,23.70
2023-02-16T06:50:17.682Z,24.30
2023-02-16T06:52:44.304Z,24.15
2023-02-16T06:55:11.037Z,22.70
2023-02-16T06:57:37.996Z,23.52
2023-02-16T07:00:07.703Z,22.73
2023-02-16T07:02:35.820Z,23.35
2023-02-16T07:05:03.483Z,23.70
2023-02-16T07:07:34.158Z,24.15
2023-02-16T07:10:02.769Z,22.92
2023-02-16T07:12:29.490Z,23.35
2023-02-16T07:14:56.309Z,24.35
2023-02-16T07:17:22.829Z,21.20
2023-02-16T07:19:49.356Z,22.35
2023-02-16T07:22:16.714Z,20.52
2023-02-16T07:24:43.525Z,23.38
2023-02-16T07:27:10.078Z,21.58
2023-02-16T07:29:36.612Z,21.08
2023-02-16T07:32:03.731Z,21.92
2023-02-16T07:34:30.702Z,23.33
2023-02-16T07:36:57.466Z,22.38
2023-02-16T07:39:24.204Z,24.02
2023-02-16T07:41:53.043Z,22.85
2023-02-16T07:44:19.593Z,20.85
2023-02-16T07:46:46.109Z,21.63
2023-02-16T07:49:12.645Z,22.20
2023-02-16T07:51:40.593Z,21.50
2023-02-16T07:54:07.557Z,22.38
2023-02-16T07:56:35.440Z,20.55
2023-02-16T07:59:02.945Z,19.98
2023-02-16T08:01:30.554Z,19.85
2023-02-16T08:03:57.555Z,20.50
2023-02-16T08:06:24.572Z,20.45
2023-02-16T08:08:51.392Z,19.02
2023-02-16T08:11:23.473Z,21.38
2023-02-16T08:13:50.274Z,22.60
2023-02-16T08:16:22.802Z,20.85
2023-02-16T08:18:50.855Z,20.67
2023-02-16T08:21:20.510Z,20.60
2023-02-16T08:23:52.962Z,19.83
2023-02-16T08:26:20.707Z,19.95
2023-02-16T08:28:50.017Z,20.40
2023-02-16T08:31:19.442Z,19.85
2023-02-16T08:33:47.744Z,20.27
2023-02-16T08:36:26.501Z,20.95
2023-02-16T08:38:53.766Z,21.45
2023-02-16T08:41:23.478Z,19.60
2023-02-16T08:43:52.585Z,20.10
2023-02-16T08:46:19.284Z,21.55
2023-02-16T08:48:46.003Z,21.60
2023-02-16T08:51:17.893Z,19.50
2023-02-16T08:53:46.712Z,21.27
2023-02-16T08:56:14.647Z,21.70
2023-02-16T08:58:41.454Z,21.08
2023-02-16T09:01:10.513Z,19.73
2023-02-16T09:03:38.608Z,21.02
2023-02-16T09:06:06.208Z,21.48
2023-02-16T09:08:33.567Z,21.02
2023-02-16T09:11:05.166Z,20.25
2023-02-16T09:13:38.058Z,21.15
2023-02-16T09:16:06.492Z,21.00
2023-02-16T09:18:33.522Z,21.30
2023-02-16T09:21:05.367Z,22.00
2023-02-16T09:23:33.128Z,21.58
2023-02-16T09:26:02.826Z,20.40
2023-02-16T09:28:30.800Z,20.85
2023-02-16T09:30:57.568Z,20.10
2023-02-16T09:33:24.691Z,21.17
2023-02-16T09:35:51.589Z,22.27
2023-02-16T09:38:18.681Z,20.73
2023-02-16T09:40:45.228Z,21.48
2023-02-16T09:43:45.539Z,21.85
2023-02-16T09:46:13.987Z,21.23
2023-02-16T09:48:43.430Z,20.77
2023-02-16T09:51:15.728Z,21.02
2023-02-16T09:53:43.376Z,22.48
2023-02-16T09:56:38.124Z,21.85
2023-02-16T09:59:11.670Z,21.77
2023-02-16T10:01:48.386Z,22.65
2023-02-16T10:04:47.483Z,22.35
2023-02-16T10:07:23.731Z,22.65
2023-02-16T10:09:53.535Z,22.65
2023-02-16T10:12:33.155Z,21.15
2023-02-16T10:15:16.417Z,22.30
2023-02-16T10:17:50.127Z,21.90
2023-02-16T10:20:32.734Z,21.23
2023-02-16T10:23:08.670Z,21.77
2023-02-16T10:25:46.937Z,21.70
2023-02-16T10:28:22.469Z,22.60
2023-02-16T10:30:57.871Z,23.73
2023-02-16T10:33:43.819Z,22.10
2023-02-16T10:36:27.881Z,22.95
2023-02-16T10:39:14.043Z,22.88
2023-02-16T10:41:44.725Z,23.08
2023-02-16T10:44:24.155Z,23.42
2023-02-16T10:47:04.168Z,22.92
2023-02-16T10:49:32.395Z,22.35
2023-02-16T10:52:01.492Z,21.60
2023-02-16T10:54:29.841Z,22.48
2023-02-16T10:57:07.668Z,21.08
2023-02-16T10:59:42.086Z,22.10
2023-02-16T11:02:18.946Z,22.48
2023-02-16T11:04:48.563Z,22.88
2023-02-16T11:07:17.820Z,23.42
2023-02-16T11:09:47.151Z,23.38
2023-02-16T11:12:35.961Z,24.80
2023-02-16T11:15:05.599Z,22.42
2023-02-16T11:17:33.336Z,24.73
2023-02-16T11:20:05.671Z,23.67
2023-02-16T11:22:37.540Z,23.08
2023-02-16T11:25:19.959Z,25.02
2023-02-16T11:27:57.884Z,24.20
2023-02-16T11:30:44.696Z,23.25
2023-02-16T11:33:26.977Z,22.70
2023-02-16T11:35:54.060Z,23.02
2023-02-16T11:38:31.523Z,21.58
2023-02-16T11:40:59.887Z,23.00
2023-02-16T11:43:28.488Z,22.25
2023-02-16T11:46:04.652Z,22.83
2023-02-16T11:48:33.129Z,23.45
2023-02-16T11:51:03.010Z,22.65
2023-02-16T11:53:33.126Z,22.40
2023-02-16T11:56:23.970Z,20.63
2023-02-16T11:59:17.068Z,21.08
2023-02-16T12:02:11.684Z,23.15
2023-02-16T12:04:41.286Z,20.33
2023-02-16T12:07:38.566Z,21.67
2023-02-16T12:10:21.586Z,21.25
2023-02-16T12:13:03.158Z,21.63
2023-02-16T12:15:40.300Z,20.75
2023-02-16T12:18:13.047Z,22.05
2023-02-16T12:20:55.072Z,20.90
2023-02-16T12:23:31.617Z,20.88
2023-02-16T12:26:15.007Z,20.73
2023-02-16T12:28:57.945Z,20.45
2023-02-16T12:31:39.849Z,20.13
2023-02-16T12:34:21.800Z,19.50
2023-02-16T12:36:58.648Z,19.45
2023-02-16T12:39:34.131Z,21.67
2023-02-16T12:42:19.408Z,20.83
2023-02-16T12:44:50.742Z,21.35
2023-02-16T12:47:24.528Z,22.50
2023-02-16T12:49:54.413Z,20.98
2023-02-16T12:52:44.788Z,19.85
2023-02-16T12:55:22.104Z,20.48
2023-02-16T12:57:56.126Z,20.27
2023-02-16T13:00:34.995Z,21.30
2023-02-16T13:03:16.724Z,19.65
2023-02-16T13:05:44.798Z,19.50
2023-02-16T13:08:25.720Z,20.50
2023-02-16T13:13:27.348Z,19.30
2023-02-16T13:16:09.553Z,19.92
2023-02-16T13:18:42.745Z,19.73
2023-02-16T13:21:15.458Z,20.10
2023-02-16T13:24:10.741Z,19.40
2023-02-16T13:26:46.438Z,19.38
2023-02-16T13:29:39.080Z,18.90
2023-02-16T13:32:33.879Z,19.10
2023-02-16T13:35:12.904Z,19.40
2023-02-16T13:37:58.223Z,17.77
2023-02-16T13:40:31.087Z,17.83
2023-02-16T13:43:12.507Z,18.23
2023-02-16T13:45:41.874Z,19.60
2023-02-16T13:48:29.710Z,18.85
2023-02-16T13:51:01.245Z,17.88
2023-02-16T13:53:37.750Z,17.67
2023-02-16T13:56:12.699Z,17.70
2023-02-16T13:58:40.882Z,18.70
2023-02-16T14:01:32.443Z,17.92
2023-02-16T14:04:01.236Z,18.20
2023-02-16T14:06:29.367Z,17.48
2023-02-16T14:09:14.056Z,17.20
2023-02-16T14:12:02.258Z,18.90
2023-02-16T14:14:46.365Z,18.30
2023-02-16T14:17:19.170Z,18.65
2023-02-16T14:20:03.626Z,18.13
2023-02-16T14:22:45.427Z,17.63
2023-02-16T14:25:24.159Z,17.88
2023-02-16T14:27:55.292Z,19.02
2023-02-16T14:30:35.509Z,19.15
2023-02-16T14:33:17.448Z,17.80
2023-02-16T14:35:48.339Z,17.90
2023-02-16T14:38:30.581Z,18.23
2023-02-16T14:40:58.638Z,17.08
2023-02-16T14:43:35.310Z,17.65
2023-02-16T14:46:20.978Z,17.25
2023-02-16T14:49:03.065Z,17.50
2023-02-16T14:52:00.733Z,17.63
2023-02-16T14:54:46.267Z,17.75
2023-02-16T14:57:16.652Z,18.30
2023-02-16T14:59:53.192Z,17.90
2023-02-16T15:02:40.035Z,17.73
2023-02-16T15:05:24.211Z,18.83
2023-02-16T15:08:05.567Z,17.23
2023-02-16T15:10:32.204Z,17.75
2023-02-16T15:12:59.156Z,16.92
2023-02-16T15:15:35.156Z,16.15
2023-02-16T15:18:01.798Z,17.52
2023-02-16T15:20:37.009Z,17.98
2023-02-16T15:23:07.905Z,16.60
2023-02-16T15:25:39.220Z,17.05
2023-02-16T15:28:11.743Z,17.48
2023-02-16T15:30:46.032Z,17.55
2023-02-16T15:33:23.066Z,16.60
2023-02-16T15:35:55.355Z,16.48
2023-02-16T15:38:25.273Z,15.88
2023-02-16T15:40:54.048Z,15.45
2023-02-16T15:43:35.815Z,16.45
2023-02-16T15:46:04.604Z,16.13
2023-02-16T15:48:37.650Z,17.20
2023-02-16T15:51:11.457Z,16.45
2023-02-16T15:53:45.952Z,15.85
2023-02-16T15:56:34.056Z,17.25
2023-02-16T15:59:03.506Z,16.63
2023-02-16T16:01:35.542Z,16.40
2023-02-16T16:04:05.701Z,17.45
2023-02-16T16:06:37.706Z,16.50
2023-02-16T16:09:08.288Z,16.17
2023-02-16T16:11:36.441Z,18.00
2023-02-16T16:14:04.790Z,17.70
2023-02-16T16:16:32.393Z,17.70
2023-02-16T16:19:08.687Z,17.83
2023-02-16T16:21:39.143Z,17.85
2023-02-16T16:24:07.969Z,17.80
2023-02-16T16:26:50.975Z,17.05
2023-02-16T16:29:32.146Z,18.33
2023-02-16T16:34:39.505Z,19.23
2023-02-16T16:37:27.779Z,16.77
2023-02-16T16:40:02.126Z,17.60
2023-02-16T16:42:28.670Z,18.23
2023-02-16T16:45:01.626Z,17.95
2023-02-16T16:47:39.435Z,18.77
2023-02-16T16:50:14.417Z,20.30
2023-02-16T16:52:43.731Z,20.70
2023-02-16T16:55:19.314Z,21.00
2023-02-16T16:57:46.604Z,19.75
2023-02-16T17:00:14.825Z,17.55
2023-02-16T17:02:41.475Z,18.02
2023-02-16T17:05:08.369Z,16.60
2023-02-16T17:07:34.982Z,19.55
2023-02-16T17:10:01.654Z,19.23
2023-02-16T17:12:28.480Z,18.33
2023-02-16T17:14:55.614Z,17.30
2023-02-16T17:17:22.165Z,17.33
2023-02-16T17:19:48.820Z,17.33
2023-02-16T17:22:17.661Z,17.75
2023-02-16T17:24:44.672Z,18.23
2023-02-16T17:27:11.425Z,18.25
2023-02-16T17:29:38.069Z,19.15
2023-02-16T17:32:05.440Z,18.77
2023-02-16T17:34:31.998Z,20.40
2023-02-16T17:37:00.167Z,19.38
2023-02-16T17:39:26.812Z,19.83
2023-02-16T17:41:53.316Z,19.80
2023-02-16T17:44:20.848Z,21.23
2023-02-16T17:46:47.502Z,20.13
2023-02-16T17:49:14.573Z,20.88
2023-02-16T17:51:41.361Z,21.15
2023-02-16T17:54:10.971Z,21.60
2023-02-16T17:56:41.704Z,21.13
2023-02-16T17:59:10.524Z,20.73
2023-02-16T18:01:37.689Z,21.15
2023-02-16T18:04:04.360Z,20.35
2023-02-16T18:06:30.888Z,20.75
2023-02-16T18:08:57.581Z,19.45
2023-02-16T18:11:24.245Z,20.67
2023-02-16T18:13:50.873Z,20.83
2023-02-16T18:16:19.150Z,20.45
2023-02-16T18:18:45.908Z,21.35
2023-02-16T18:21:12.508Z,20.95
2023-02-16T18:23:39.389Z,20.23
2023-02-16T18:26:07.131Z,20.92
2023-02-16T18:28:34.361Z,20.33
2023-02-16T18:31:01.180Z,19.95
2023-02-16T18:33:28.007Z,21.13
2023-02-16T18:35:57.465Z,21.50
2023-02-16T18:38:25.215Z,21.33
2023-02-16T18:40:53.299Z,20.67
2023-02-16T18:43:20.128Z,21.10
2023-02-16T18:45:46.705Z,21.25
2023-02-16T18:48:13.483Z,19.17
2023-02-16T18:50:39.988Z,20.60
2023-02-16T18:53:07.131Z,20.80
2023-02-16T18:55:33.949Z,19.85
2023-02-16T18:58:01.595Z,20.05
2023-02-16T19:00:28.192Z,20.10
2023-02-16T19:02:55.371Z,20.23
2023-02-16T19:05:21.992Z,21.08
2023-02-16T19:07:48.548Z,19.92
2023-02-16T19:10:15.599Z,20.70
2023-02-16T19:12:42.174Z,19.98
2023-02-16T19:15:09.129Z,19.88
2023-02-16T19:17:35.668Z,21.38
2023-02-16T19:20:02.161Z,19.63
2023-02-16T19:22:28.636Z,20.13
2023-02-16T19:24:55.236Z,19.10
2023-02-16T19:27:21.733Z,20.50
2023-02-16T19:29:48.277Z,20.88
2023-02-16T19:32:15.038Z,20.52
2023-02-16T19:34:41.530Z,20.23
2023-02-16T19:37:08.074Z,18.75
2023-02-16T19:39:35.002Z,19.08
2023-02-16T19:42:01.514Z,19.90
2023-02-16T19:44:28.073Z,19.85
2023-02-16T19:46:54.723Z,19.85
2023-02-16T19:49:21.267Z,19.88
2023-02-16T19:51:47.915Z,19.00
2023-02-16T19:54:14.976Z,20.23
2023-02-16T19:56:41.515Z,18.80
2023-02-16T19:59:08.315Z,18.88
2023-02-16T20:01:34.818Z,19.15
2023-02-16T20:04:02.777Z,20.20
2023-02-16T20:06:41.054Z,18.80
2023-02-16T20:09:07.950Z,19.58
2023-02-16T20:11:35.004Z,19.67
2023-02-16T20:14:02.023Z,20.63
2023-02-16T20:16:29.334Z,19.55
2023-02-16T20:18:57.278Z,18.98
2023-02-16T20:21:26.349Z,18.73
2023-02-16T20:23:55.962Z,19.17
2023-02-16T20:26:25.667Z,19.73
2023-02-16T20:28:52.629Z,19.70
2023-02-16T20:31:28.934Z,18.75
2023-02-16T20:33:55.814Z,20.65
2023-02-16T20:36:22.893Z,19.92
2023-02-16T20:38:50.600Z,19.75
2023-02-16T20:41:18.422Z,18.90
2023-02-16T20:43:45.361Z,19.70
2023-02-16T20:46:13.414Z,18.80
2023-02-16T20:48:40.300Z,19.17
2023-02-16T20:51:08.046Z,19.80
2023-02-16T20:53:35.259Z,20.13
2023-02-16T20:56:04.983Z,19.88
2023-02-16T20:58:32.096Z,20.30
2023-02-16T21:00:58.655Z,20.58
2023-02-16T21:03:26.102Z,20.08
2023-02-16T21:05:53.389Z,21.38
2023-02-16T21:08:20.402Z,20.38
2023-02-16T21:10:46.991Z,20.45
2023-02-16T21:13:13.522Z,20.48
2023-02-16T21:15:40.453Z,21.63
2023-02-16T21:18:06.936Z,20.13
2023-02-16T21:20:33.440Z,21.25
2023-02-16T21:23:03.396Z,20.15
2023-02-16T21:25:30.545Z,20.67
2023-02-16T21:27:57.046Z,20.63
2023-02-16T21:30:23.569Z,21.45
2023-02-16T21:32:50.533Z,21.80
2023-02-16T21:35:18.120Z,23.30
2023-02-16T21:37:44.610Z,20.85
2023-02-16T21:40:30.441Z,19.77
2023-02-16T21:42:56.985Z,21.75
2023-02-16T21:45:23.493Z,19.98
2023-02-16T21:48:09.171Z,21.00
2023-02-16T21:50:38.955Z,20.23
2023-02-16T21:53:05.842Z,21.33
2023-02-16T21:55:50.986Z,22.10
2023-02-16T21:58:17.780Z,21.63
2023-02-16T22:00:44.834Z,21.05
2023-02-16T22:03:12.495Z,21.25
2023-02-16T22:05:39.018Z,23.08
2023-02-16T22:08:06.056Z,22.98
2023-02-16T22:10:34.214Z,23.00
2023-02-16T22:13:01.059Z,22.75
2023-02-16T22:15:27.641Z,23.42
2023-02-16T22:17:54.182Z,20.42
2023-02-16T22:20:21.148Z,23.08
2023-02-16T22:22:47.943Z,24.02
2023-02-16T22:25:14.427Z,24.30
2023-02-16T22:27:41.277Z,24.48
2023-02-16T22:30:08.598Z,24.15
2023-02-16T22:32:35.104Z,24.67
2023-02-16T22:35:01.796Z,24.20
2023-02-16T22:37:28.470Z,26.08
2023-02-16T22:39:55.201Z,23.88
2023-02-16T22:42:22.476Z,24.23
2023-02-16T22:44:49.333Z,25.80
2023-02-16T22:47:16.040Z,25.35
2023-02-16T22:49:42.713Z,25.27
2023-02-16T22:52:11.310Z,25.00
2023-02-16T22:54:37.901Z,24.98
2023-02-16T22:57:04.627Z,25.27
2023-02-16T22:59:31.491Z,24.35
2023-02-16T23:01:57.991Z,24.63
2023-02-16T23:04:27.672Z,25.23
2023-02-16T23:06:54.181Z,26.23
2023-02-16T23:09:22.067Z,24.23
2023-02-16T23:11:49.400Z,24.45
2023-02-16T23:14:16.665Z,25.38
2023-02-16T23:16:47.630Z,24.88
2023-02-16T23:19:16.766Z,26.48
2023-02-16T23:21:43.457Z,26.35
2023-02-16T23:24:15.580Z,27.20
2023-02-16T23:26:42.352Z,27.00
2023-02-16T23:29:09.418Z,25.58
2023-02-16T23:31:38.252Z,27.65
2023-02-16T23:34:05.843Z,28.50
2023-02-16T23:36:33.390Z,26.13
2023-02-16T23:39:10.518Z,25.20
2023-02-16T23:41:36.999Z,26.00
2023-02-16T23:44:04.673Z,26.27
2023-02-16T23:46:31.377Z,26.67
2023-02-16T23:48:58.325Z,27.80
2023-02-16T23:51:24.937Z,27.67
2023-02-16T23:53:51.572Z,27.58
2023-02-16T23:56:20.895Z,27.88
2023-02-16T23:58:47.625Z,28.17
